KGEG/GEG METAR and TAF weather

Enter ICAO airport designator
Station Type Date Time Source
KGEG METAR 2020/05/29 19:53 UTC NOAA

KGEG 291953Z VRB03KT 10SM FEW100 FEW170 SCT270 27/08 A2996 RMK AO2 SLP130 T02720083


Station Type Date Time Source
KGEG Decoded METAR 2020/05/29 19:53 UTC NOAA

SPOKANE INTERNATIONAL AIRPORT , WA, United States (KGEG) 47-37N 117-32W 735M
May 29, 2020 - 03:53 PM EDT / 2020.05.29 1953 UTC
Wind: Variable at 3 MPH (3 KT):0
Visibility: 10 mile(s):0
Sky conditions: partly cloudy
Temperature: 81.0 F (27.2 C)
Dew Point: 46.9 F (8.3 C)
Relative Humidity: 30%
Pressure (altimeter): 29.96 in. Hg (1014 hPa)
ob: KGEG 291953Z VRB03KT 10SM FEW100 FEW170 SCT270 27/08 A2996 RMK AO2 SLP130 T02720083
cycle: 20

Station Type Date Time Source
KGEG TAF 2020/05/29 18:27 UTC NOAA

TAF KGEG 291723Z 2918/3018 05006KT P6SM FEW150 SCT250
FM301500 05007KT P6SM VCSH BKN120

Example: see airport list